Time;durP1;ratioP1;P1;durP2;ratioP2;P2;SDS_P1;SDS_P2;PMS_P1;PMS_P2;Temp;Humidity;BMP_temperature;BMP_pressure;BME280_temperature;BME280_humidity;BME280_pressure;Samples;Min_cycle;Max_cycle;Signal;HPM_P1;HPM_P2
2021/05/02 00:00:24;;;;;;;27.90;19.70;;;;;;;2.81;94.85;100599.78;5092861;28;20272;-70
2021/05/02 00:02:50;;;;;;;25.53;18.17;;;;;;;2.91;95.11;100602.19;5092471;28;20170;-70
2021/05/02 00:05:17;;;;;;;24.13;18.43;;;;;;;3.07;95.58;100600.91;5093942;28;20256;-70
2021/05/02 00:07:42;;;;;;;24.40;18.07;;;;;;;3.23;96.34;100601.38;5092292;28;20177;-70
2021/05/02 00:10:09;;;;;;;27.50;20.07;;;;;;;3.36;96.36;100597.53;5091590;28;20197;-70
2021/05/02 00:12:35;;;;;;;30.50;20.80;;;;;;;3.44;96.02;100606.94;5092219;28;20170;-70
2021/05/02 00:15:00;;;;;;;34.23;24.43;;;;;;;3.47;96.48;100606.00;5092283;28;20169;-70
2021/05/02 00:17:26;;;;;;;30.70;23.07;;;;;;;3.49;97.17;100598.03;5092016;28;20170;-70
2021/05/02 00:19:52;;;;;;;31.87;22.80;;;;;;;3.48;96.54;100604.22;5091833;28;20289;-70
2021/05/02 00:22:18;;;;;;;32.83;21.10;;;;;;;3.51;97.20;100598.84;5091991;28;20257;-70
2021/05/02 00:24:44;;;;;;;30.83;20.57;;;;;;;3.53;96.42;100592.63;5091988;28;20216;-70
2021/05/02 00:27:10;;;;;;;27.27;20.47;;;;;;;3.56;96.43;100599.59;5075101;28;20167;-70
2021/05/02 00:29:36;;;;;;;26.23;20.57;;;;;;;3.59;96.24;100592.44;5091617;28;20190;-70
2021/05/02 00:32:02;;;;;;;32.77;21.33;;;;;;;3.59;96.29;100588.94;5075170;28;20561;-70
2021/05/02 00:34:27;;;;;;;30.10;21.23;;;;;;;3.61;96.23;100580.06;5093252;28;20213;-70
2021/05/02 00:36:54;;;;;;;27.33;20.63;;;;;;;3.63;95.80;100575.63;5091638;28;20188;-70
2021/05/02 00:39:19;;;;;;;25.37;18.43;;;;;;;3.61;95.35;100582.72;5091694;28;20323;-70
2021/05/02 00:41:45;;;;;;;26.87;17.93;;;;;;;3.64;95.41;100581.75;5074957;28;20198;-70
2021/05/02 00:44:29;;;;;;;25.30;18.93;;;;;;;3.69;95.95;100585.13;5092129;28;20189;-70
2021/05/02 00:47:02;;;;;;;25.00;17.87;;;;;;;3.67;95.30;100589.59;5092987;28;20177;-70
2021/05/02 00:49:38;;;;;;;24.30;18.13;;;;;;;3.57;93.43;100594.28;5091584;28;20206;-70
2021/05/02 00:52:11;;;;;;;23.60;18.17;;;;;;;3.46;93.80;100585.78;5091818;28;20155;-70
2021/05/02 00:54:39;;;;;;;19.37;15.73;;;;;;;3.49;94.12;100587.47;5092047;28;20169;-70
2021/05/02 00:57:07;;;;;;;18.87;14.37;;;;;;;3.52;93.97;100584.75;5091651;28;20748;-70
2021/05/02 01:00:05;;;;;;;22.77;16.47;;;;;;;3.56;94.48;100583.75;5091460;28;20225;-70
2021/05/02 01:02:32;;;;;;;22.30;15.57;;;;;;;3.42;93.16;100577.09;5091453;28;20170;-70
2021/05/02 01:05:02;;;;;;;18.20;14.60;;;;;;;3.38;93.30;100578.09;5091739;28;20182;-70
2021/05/02 01:07:32;;;;;;;17.93;13.80;;;;;;;3.31;93.41;100579.16;5108449;28;20181;-70
2021/05/02 01:10:04;;;;;;;16.43;13.10;;;;;;;3.33;92.64;100576.47;5091396;28;20190;-70
2021/05/02 01:12:29;;;;;;;20.93;14.97;;;;;;;3.24;93.62;100572.31;5092989;28;20219;-70
2021/05/02 01:14:58;;;;;;;17.73;14.33;;;;;;;3.26;94.16;100559.09;5091761;28;20265;-70
2021/05/02 01:17:24;;;;;;;22.50;15.23;;;;;;;3.33;94.67;100561.50;5091429;28;20162;-70
2021/05/02 01:19:50;;;;;;;22.93;16.47;;;;;;;3.36;94.79;100555.31;5091327;28;20186;-70
2021/05/02 01:22:20;;;;;;;23.40;17.17;;;;;;;3.37;94.92;100555.25;5092480;28;20655;-70
2021/05/02 01:24:48;;;;;;;21.97;16.90;;;;;;;3.29;94.33;100557.22;5095098;28;20554;-70
2021/05/02 01:27:22;;;;;;;24.13;16.43;;;;;;;3.31;93.90;100560.69;5095168;28;20650;-71
2021/05/02 01:29:47;;;;;;;18.00;14.30;;;;;;;3.28;93.26;100555.50;5095179;28;20273;-71
2021/05/02 01:32:13;;;;;;;22.07;14.83;;;;;;;3.08;93.25;100552.53;5094835;28;20638;-70
2021/05/02 01:34:38;;;;;;;21.90;15.97;;;;;;;3.14;94.43;100547.09;5078179;28;20646;-70
2021/05/02 01:37:04;;;;;;;24.30;18.63;;;;;;;3.25;94.90;100547.66;5094886;28;20460;-71
2021/05/02 01:39:29;;;;;;;23.83;17.83;;;;;;;3.34;94.88;100552.69;5095074;28;20242;-71
2021/05/02 01:41:55;;;;;;;32.57;21.77;;;;;;;3.46;95.81;100546.22;5096141;28;20280;-71
2021/05/02 01:44:20;;;;;;;41.60;24.17;;;;;;;3.72;96.35;100548.13;5095115;28;20193;-70
2021/05/02 01:46:46;;;;;;;26.77;18.50;;;;;;;3.71;95.17;100547.22;5096780;28;20177;-71
2021/05/02 01:49:15;;;;;;;25.67;18.07;;;;;;;3.65;94.17;100542.13;5095077;28;20249;-71
2021/05/02 01:51:40;;;;;;;21.43;15.33;;;;;;;3.67;93.95;100539.44;5094838;28;20197;-70
2021/05/02 01:54:05;;;;;;;23.77;15.60;;;;;;;3.64;93.64;100537.75;5094544;28;20174;-70
2021/05/02 01:56:32;;;;;;;18.77;15.27;;;;;;;3.64;93.99;100529.84;5077729;28;20206;-70
2021/05/02 01:58:59;;;;;;;23.43;16.20;;;;;;;3.64;93.44;100535.13;5077550;28;20284;-70
2021/05/02 02:01:27;;;;;;;20.30;15.93;;;;;;;3.61;93.57;100532.56;5095770;28;20162;-70
2021/05/02 02:03:53;;;;;;;28.83;16.50;;;;;;;3.65;94.07;100530.69;5094448;28;20251;-70
2021/05/02 02:06:18;;;;;;;21.20;15.93;;;;;;;3.64;94.01;100531.63;5095650;28;20256;-70
2021/05/02 02:08:43;;;;;;;24.70;15.73;;;;;;;3.59;93.88;100534.41;5094267;28;20189;-70
2021/05/02 02:11:09;;;;;;;20.87;14.63;;;;;;;3.55;93.85;100521.34;5094314;28;20177;-70
2021/05/02 02:13:35;;;;;;;18.03;14.43;;;;;;;3.49;92.48;100530.28;5094392;28;20196;-70
2021/05/02 02:16:07;;;;;;;17.63;13.90;;;;;;;3.41;92.70;100525.25;5094204;28;20174;-70
2021/05/02 02:18:33;;;;;;;23.73;16.77;;;;;;;3.40;93.68;100523.50;5077282;28;20277;-70
2021/05/02 02:21:00;;;;;;;22.73;16.77;;;;;;;3.49;94.43;100525.03;5077122;28;20262;-70
2021/05/02 02:23:30;;;;;;;20.77;14.70;;;;;;;3.60;93.47;100522.91;5094548;28;20187;-70
2021/05/02 02:25:56;;;;;;;20.67;14.30;;;;;;;3.69;93.49;100519.13;5110982;28;20170;-70
2021/05/02 02:28:22;;;;;;;17.57;13.77;;;;;;;3.61;92.85;100519.38;5094235;28;20251;-70
2021/05/02 02:30:50;;;;;;;16.97;13.27;;;;;;;3.48;92.28;100522.44;5093824;28;20642;-70
2021/05/02 02:33:16;;;;;;;15.53;12.33;;;;;;;3.44;91.61;100525.16;5093603;28;20170;-70
2021/05/02 02:35:52;;;;;;;14.40;11.40;;;;;;;3.39;90.15;100526.19;5077020;28;20173;-70
2021/05/02 02:38:19;;;;;;;14.63;11.30;;;;;;;3.31;90.35;100525.53;5094093;28;20197;-70
2021/05/02 02:40:48;;;;;;;13.37;10.63;;;;;;;3.37;91.17;100531.53;5094115;28;20170;-70
2021/05/02 02:43:20;;;;;;;16.27;11.77;;;;;;;3.28;90.32;100530.88;5093685;28;20190;-70
2021/05/02 02:45:45;;;;;;;15.67;13.00;;;;;;;3.24;90.15;100540.66;5093659;28;20159;-70
2021/05/02 02:48:11;;;;;;;14.47;11.90;;;;;;;3.23;90.68;100535.44;5093324;28;20201;-70
2021/05/02 02:50:40;;;;;;;15.47;12.87;;;;;;;3.28;90.11;100538.81;5094982;28;20177;-70
2021/05/02 02:53:06;;;;;;;16.57;12.53;;;;;;;3.29;89.86;100538.75;5093309;28;20169;-70
2021/05/02 02:55:34;;;;;;;14.93;12.13;;;;;;;3.37;89.62;100536.78;5094755;28;20185;-70
2021/05/02 02:58:04;;;;;;;15.67;12.57;;;;;;;3.33;88.91;100529.84;5093361;28;20215;-70
2021/05/02 03:00:31;;;;;;;14.57;12.03;;;;;;;3.33;88.77;100524.56;5076302;28;20177;-70
2021/05/02 03:03:13;;;;;;;15.47;11.63;;;;;;;3.36;88.63;100526.28;5093320;28;20268;-70
2021/05/02 03:05:39;;;;;;;15.60;12.13;;;;;;;3.23;88.24;100525.75;5093256;28;20174;-70
2021/05/02 03:08:07;;;;;;;13.93;12.10;;;;;;;3.05;89.55;100518.34;5093411;28;20185;-70
2021/05/02 03:10:32;;;;;;;15.07;11.70;;;;;;;3.02;90.24;100523.72;5094207;28;20184;-70
2021/05/02 03:12:59;;;;;;;17.33;12.57;;;;;;;3.05;90.31;100523.63;5093060;28;20174;-70
2021/05/02 03:15:25;;;;;;;16.73;12.07;;;;;;;3.08;90.20;100513.84;5109988;28;20187;-70
2021/05/02 03:18:04;;;;;;;15.70;12.47;;;;;;;3.08;90.26;100515.63;5075990;28;20174;-70
2021/05/02 03:20:36;;;;;;;14.97;11.67;;;;;;;3.12;90.41;100519.91;5076044;28;20168;-70
2021/05/02 03:23:06;;;;;;;12.20;9.90;;;;;;;3.16;88.41;100512.78;5093682;28;20167;-70
2021/05/02 03:25:34;;;;;;;12.20;10.37;;;;;;;3.13;88.49;100511.09;5092939;28;20187;-70
2021/05/02 03:28:02;;;;;;;13.20;9.80;;;;;;;2.99;89.24;100503.56;5092840;28;20290;-70
2021/05/02 03:30:28;;;;;;;14.23;11.80;;;;;;;2.70;90.62;100501.69;5093967;28;20537;-70
2021/05/02 03:32:56;;;;;;;13.73;12.00;;;;;;;2.71;91.91;100505.19;5092731;28;20178;-70
2021/05/02 03:35:27;;;;;;;14.10;11.73;;;;;;;2.75;91.50;100504.19;5093021;28;20169;-70
2021/05/02 03:38:17;;;;;;;13.73;10.80;;;;;;;2.78;91.49;100499.72;5092704;28;20583;-70
2021/05/02 03:40:44;;;;;;;12.87;10.77;;;;;;;2.77;92.12;100494.47;5093866;28;20537;-70
2021/05/02 03:43:10;;;;;;;13.30;9.93;;;;;;;2.84;92.05;100503.94;5092783;28;20204;-70
2021/05/02 03:45:35;;;;;;;13.27;10.03;;;;;;;2.90;91.26;100500.28;5093088;28;20181;-70
2021/05/02 03:48:00;;;;;;;11.70;9.77;;;;;;;2.92;91.11;100501.97;5092251;28;20187;-70
2021/05/02 03:50:26;;;;;;;15.87;11.60;;;;;;;2.92;91.76;100501.97;5127167;22;20253;-80
2021/05/02 03:52:51;;;;;;;15.90;11.23;;;;;;;2.97;92.54;100505.34;5109233;28;20169;-80
2021/05/02 03:55:18;;;;;;;17.83;11.00;;;;;;;3.11;92.36;100505.00;5108047;28;20167;-80
2021/05/02 03:57:43;;;;;;;15.40;10.13;;;;;;;3.24;91.49;100509.00;5109924;28;20256;-79
2021/05/02 04:00:09;;;;;;;15.47;11.13;;;;;;;3.07;91.19;100506.84;5086508;28;20232;-78
2021/05/02 04:02:35;;;;;;;15.23;11.53;;;;;;;3.07;91.53;100506.84;5068444;28;20179;-80
2021/05/02 04:05:00;;;;;;;13.10;9.43;;;;;;;3.13;91.17;100509.31;5087637;28;20216;-80
2021/05/02 04:07:25;;;;;;;12.70;9.73;;;;;;;3.07;90.38;100509.50;5085208;28;20182;-80
2021/05/02 04:09:51;;;;;;;11.20;9.00;;;;;;;3.14;90.79;100504.91;5088358;28;20270;-79
2021/05/02 04:12:16;;;;;;;14.83;10.07;;;;;;;3.07;91.60;100517.41;5087939;28;20173;-79
2021/05/02 04:14:42;;;;;;;12.83;9.60;;;;;;;3.16;91.52;100513.63;5069256;28;20174;-80
2021/05/02 04:17:10;;;;;;;14.33;9.90;;;;;;;3.12;91.82;100519.91;5067187;28;20177;-80
2021/05/02 04:19:37;;;;;;;14.07;9.20;;;;;;;3.31;92.05;100512.34;5085524;28;20674;-81
2021/05/02 04:22:03;;;;;;;13.63;9.47;;;;;;;3.37;90.55;100520.09;5101699;28;20174;-79
2021/05/02 04:24:29;;;;;;;11.80;8.33;;;;;;;3.41;90.47;100525.25;5067718;28;20244;-80
2021/05/02 04:26:55;;;;;;;11.40;8.60;;;;;;;3.43;90.54;100517.28;5086064;28;20217;-80
2021/05/02 04:29:22;;;;;;;12.47;8.33;;;;;;;3.53;90.45;100517.88;5085140;28;20233;-80
2021/05/02 04:31:48;;;;;;;16.87;7.63;;;;;;;3.67;90.10;100518.31;5084484;28;20170;-81
2021/05/02 04:34:13;;;;;;;13.67;8.90;;;;;;;3.50;88.96;100520.59;5086643;28;20238;-79
2021/05/02 04:36:38;;;;;;;16.63;9.20;;;;;;;3.42;89.95;100518.19;5068273;28;20218;-81
2021/05/02 04:39:04;;;;;;;13.47;9.60;;;;;;;3.39;90.49;100520.91;5084583;28;20224;-79
2021/05/02 04:41:30;;;;;;;15.43;9.60;;;;;;;3.40;90.01;100530.56;5087067;28;20225;-80
2021/05/02 04:43:55;;;;;;;13.53;8.83;;;;;;;3.43;90.40;100531.34;5087295;28;20206;-79
2021/05/02 04:46:21;;;;;;;13.37;8.97;;;;;;;3.40;89.90;100530.56;5089109;28;20195;-79
2021/05/02 04:48:46;;;;;;;12.17;9.13;;;;;;;3.52;89.91;100531.97;5084196;28;20190;-80
2021/05/02 04:51:13;;;;;;;15.33;8.83;;;;;;;3.58;89.26;100534.44;5083377;28;20159;-80
2021/05/02 04:53:38;;;;;;;12.23;8.53;;;;;;;3.71;89.58;100531.38;5083014;28;20206;-79
2021/05/02 04:56:04;;;;;;;12.63;8.37;;;;;;;3.87;89.52;100533.59;5084189;28;20197;-81
2021/05/02 04:58:29;;;;;;;16.10;9.73;;;;;;;3.91;89.22;100532.56;5084793;28;20220;-80
2021/05/02 05:00:54;;;;;;;10.77;8.73;;;;;;;3.96;89.89;100530.66;5087796;28;20182;-81
2021/05/02 05:03:20;;;;;;;12.93;6.93;;;;;;;4.03;89.05;100526.91;5070558;28;20191;-81
2021/05/02 05:05:45;;;;;;;9.73;7.33;;;;;;;4.17;87.80;100519.44;5086962;28;20261;-81
2021/05/02 05:08:11;;;;;;;11.23;8.97;;;;;;;3.98;88.61;100534.97;5090402;28;20158;-81
2021/05/02 05:10:36;;;;;;;15.10;9.43;;;;;;;3.93;88.68;100522.84;5090242;28;20190;-81
2021/05/02 05:13:02;;;;;;;10.63;6.67;;;;;;;4.21;87.43;100522.84;5089463;28;20175;-79
2021/05/02 05:15:27;;;;;;;9.33;6.80;;;;;;;4.39;87.21;100527.53;5087817;28;20216;-80
2021/05/02 05:17:53;;;;;;;10.90;8.77;;;;;;;4.55;87.07;100531.41;5089473;28;20179;-78
2021/05/02 05:20:18;;;;;;;13.83;10.00;;;;;;;4.64;85.65;100523.19;5100270;28;20191;-81
2021/05/02 05:22:43;;;;;;;12.07;9.07;;;;;;;4.73;85.29;100522.00;5102341;28;20234;-80
2021/05/02 05:25:09;;;;;;;12.97;9.60;;;;;;;4.85;83.88;100528.66;5101209;28;20207;-81
2021/05/02 05:27:34;;;;;;;12.13;10.00;;;;;;;4.67;84.92;100524.84;5099554;28;20171;-80
2021/05/02 05:30:00;;;;;;;11.80;9.57;;;;;;;4.72;85.36;100529.06;5095720;28;20286;-81
2021/05/02 05:32:25;;;;;;;12.90;9.47;;;;;;;4.89;84.62;100530.28;5091951;28;20274;-81
2021/05/02 05:34:50;;;;;;;12.70;9.10;;;;;;;4.94;84.20;100528.34;5095357;28;20253;-81
2021/05/02 05:37:16;;;;;;;9.80;7.37;;;;;;;5.07;85.18;100523.47;5095228;28;20209;-81
2021/05/02 05:39:41;;;;;;;8.53;6.67;;;;;;;5.19;83.78;100521.25;5094990;28;20199;-81
2021/05/02 05:42:07;;;;;;;10.17;7.70;;;;;;;4.78;84.99;100527.13;5097386;28;20190;-80
2021/05/02 05:44:32;;;;;;;9.37;7.43;;;;;;;4.71;85.53;100524.69;5092587;28;20197;-80
2021/05/02 05:46:58;;;;;;;9.67;7.27;;;;;;;4.49;86.81;100528.97;5091125;28;20175;-80
2021/05/02 05:49:23;;;;;;;12.37;7.87;;;;;;;4.45;87.07;100516.75;5092912;28;20218;-81
2021/05/02 05:51:51;;;;;;;10.03;7.13;;;;;;;4.51;86.77;100516.59;5093459;28;20269;-79
2021/05/02 05:54:17;;;;;;;8.67;5.97;;;;;;;4.66;86.06;100516.06;5073026;28;20194;-81
2021/05/02 05:56:42;;;;;;;10.97;5.73;;;;;;;4.94;84.22;100520.41;5091214;28;20175;-81
2021/05/02 05:59:07;;;;;;;7.17;5.40;;;;;;;5.07;82.82;100516.41;5091378;28;20198;-80
2021/05/02 06:01:33;;;;;;;9.10;5.90;;;;;;;5.02;84.15;100521.00;5092831;28;20175;-80
2021/05/02 06:03:58;;;;;;;9.53;6.10;;;;;;;5.06;83.30;100514.69;5091134;28;20263;-80
2021/05/02 06:06:24;;;;;;;8.07;6.37;;;;;;;4.69;84.58;100518.59;5090644;28;20167;-80
2021/05/02 06:08:49;;;;;;;9.63;6.97;;;;;;;4.42;85.85;100503.66;5089183;28;20238;-79
2021/05/02 06:11:14;;;;;;;9.03;6.80;;;;;;;4.17;87.35;100502.72;5091673;28;20554;-81
2021/05/02 06:13:40;;;;;;;12.03;7.90;;;;;;;4.15;87.50;100512.47;5091126;28;20167;-79
2021/05/02 06:16:05;;;;;;;9.57;6.87;;;;;;;4.03;87.79;100513.72;5091589;28;20170;-80
2021/05/02 06:18:30;;;;;;;12.07;8.20;;;;;;;4.08;88.27;100514.44;5092003;28;20183;-80
2021/05/02 06:20:57;;;;;;;9.90;7.10;;;;;;;4.03;88.17;100516.34;5092741;28;20171;-80
2021/05/02 06:23:23;;;;;;;12.17;7.67;;;;;;;4.07;88.50;100524.13;5089915;28;20259;-81
2021/05/02 06:25:48;;;;;;;9.33;6.97;;;;;;;4.17;88.32;100514.16;5092836;28;20186;-79
2021/05/02 06:28:13;;;;;;;8.57;6.50;;;;;;;4.33;87.77;100522.44;5091459;28;20233;-79
2021/05/02 06:30:38;;;;;;;9.87;6.30;;;;;;;4.26;87.07;100523.56;5092757;28;20194;-80
2021/05/02 06:33:04;;;;;;;9.80;5.97;;;;;;;4.41;86.92;100523.06;5092452;28;20190;-80
2021/05/02 06:35:29;;;;;;;10.47;6.67;;;;;;;4.38;87.78;100525.81;5091167;28;20163;-80
2021/05/02 06:37:55;;;;;;;7.93;5.63;;;;;;;4.77;86.61;100525.41;5092250;28;20177;-80
2021/05/02 06:40:20;;;;;;;8.20;5.70;;;;;;;5.15;85.19;100524.06;5092334;28;20191;-80
2021/05/02 06:42:45;;;;;;;8.20;6.03;;;;;;;5.33;83.66;100526.94;5092587;28;20171;-79
2021/05/02 06:45:13;;;;;;;5.67;4.60;;;;;;;5.61;83.93;100531.22;5093289;28;20734;-80
2021/05/02 06:47:39;;;;;;;8.33;6.23;;;;;;;5.46;83.66;100532.63;5090519;28;20171;-80
2021/05/02 06:50:04;;;;;;;7.83;5.83;;;;;;;5.41;84.63;100533.72;5092518;28;20207;-79
2021/05/02 06:52:29;;;;;;;9.17;5.03;;;;;;;5.57;83.89;100535.75;5090645;28;20179;-80
2021/05/02 06:54:56;;;;;;;30.97;8.23;;;;;;;5.90;82.56;100531.00;5089503;28;20197;-80
2021/05/02 06:57:21;;;;;;;8.57;5.23;;;;;;;5.74;82.92;100548.38;5093915;28;20171;-82
2021/05/02 06:59:47;;;;;;;6.60;5.00;;;;;;;5.57;84.07;100535.75;5111426;28;20179;-81
2021/05/02 07:02:12;;;;;;;6.93;4.70;;;;;;;5.44;84.21;100536.25;5096125;28;20254;-80
2021/05/02 07:04:39;;;;;;;8.43;4.73;;;;;;;5.62;84.37;100538.25;5081036;28;20258;-81
2021/05/02 07:07:04;;;;;;;10.23;4.60;;;;;;;5.34;85.64;100541.91;5096339;28;20171;-80
2021/05/02 07:09:30;;;;;;;10.10;5.00;;;;;;;5.19;86.48;100537.13;5095892;28;20221;-79
2021/05/02 07:11:57;;;;;;;10.03;5.53;;;;;;;5.21;87.04;100558.28;5093446;28;20171;-80
2021/05/02 07:14:22;;;;;;;9.90;5.03;;;;;;;5.20;87.50;100552.13;5091615;28;20158;-80
2021/05/02 07:16:47;;;;;;;8.80;4.77;;;;;;;5.32;86.65;100556.97;5106916;28;20178;-79
2021/05/02 07:19:17;;;;;;;9.87;5.00;;;;;;;5.18;87.55;100558.34;5088887;28;20199;-80
2021/05/02 07:21:42;;;;;;;8.40;5.23;;;;;;;5.37;86.31;100561.22;5090656;28;20201;-79
2021/05/02 07:24:08;;;;;;;9.87;4.77;;;;;;;5.42;86.56;100562.78;5088743;28;20183;-79
2021/05/02 07:26:33;;;;;;;8.80;5.47;;;;;;;5.74;85.09;100574.00;5089042;28;20182;-79
2021/05/02 07:28:59;;;;;;;8.47;5.10;;;;;;;5.73;84.29;100570.47;5086137;28;20190;-79
2021/05/02 07:31:24;;;;;;;7.70;4.33;;;;;;;5.71;85.75;100582.06;5103605;28;20242;-79
2021/05/02 07:33:49;;;;;;;6.37;4.37;;;;;;;5.63;85.53;100566.44;5089654;28;20171;-80
2021/05/02 07:36:15;;;;;;;8.53;4.63;;;;;;;5.77;84.92;100569.44;5088856;28;20212;-79
2021/05/02 07:38:42;;;;;;;9.00;4.70;;;;;;;5.82;85.10;100570.13;5089265;28;20178;-80
2021/05/02 07:41:07;;;;;;;9.37;4.50;;;;;;;6.10;83.45;100566.47;5106422;28;20174;-80
2021/05/02 07:43:33;;;;;;;9.83;5.17;;;;;;;6.14;83.99;100566.28;5089856;28;20209;-80
2021/05/02 07:45:59;;;;;;;9.37;4.60;;;;;;;6.42;82.68;100576.69;5090176;28;20174;-80
2021/05/02 07:48:24;;;;;;;9.07;4.27;;;;;;;6.64;81.48;100568.72;5104946;28;20180;-80
2021/05/02 07:50:50;;;;;;;6.23;4.27;;;;;;;6.55;83.22;100579.69;5090419;28;20186;-80
2021/05/02 07:53:18;;;;;;;9.10;5.10;;;;;;;6.86;81.07;100571.34;5090375;28;20181;-82
2021/05/02 07:55:43;;;;;;;6.90;4.37;;;;;;;7.02;79.77;100567.09;5089556;28;20193;-80
2021/05/02 07:58:09;;;;;;;7.60;4.90;;;;;;;6.86;81.28;100569.56;5090907;28;20227;-80
2021/05/02 08:00:34;;;;;;;12.20;4.80;;;;;;;6.92;81.36;100578.19;5088323;28;20194;-81
2021/05/02 08:02:59;;;;;;;8.30;4.60;;;;;;;7.28;80.67;100570.44;5087940;28;20547;-80
2021/05/02 08:05:29;;;;;;;6.67;4.27;;;;;;;7.50;79.42;100572.09;5088913;28;20155;-81
2021/05/02 08:07:55;;;;;;;13.53;4.93;;;;;;;7.30;80.08;100568.59;5088577;28;20155;-79
2021/05/02 08:10:20;;;;;;;7.90;4.33;;;;;;;7.63;78.58;100568.91;5088397;28;20198;-79
2021/05/02 08:12:46;;;;;;;5.43;3.67;;;;;;;8.00;78.35;100570.75;5088105;28;20170;-81
2021/05/02 08:15:12;;;;;;;6.90;4.43;;;;;;;8.11;77.23;100576.41;5089270;28;20167;-79
2021/05/02 08:17:37;;;;;;;6.40;3.90;;;;;;;8.50;75.78;100580.81;5093520;28;20162;-80
2021/05/02 08:20:07;;;;;;;7.37;3.77;;;;;;;8.61;74.66;100570.53;5098094;28;20183;-79
2021/05/02 08:22:33;;;;;;;7.40;3.70;;;;;;;8.84;74.82;100572.03;5112429;28;20239;-80
2021/05/02 08:24:58;;;;;;;4.70;3.17;;;;;;;8.94;74.85;100578.66;5088373;28;20198;-80
2021/05/02 08:27:24;;;;;;;8.83;3.60;;;;;;;8.86;74.75;100571.00;5088311;28;20265;-81
2021/05/02 08:29:49;;;;;;;8.23;3.63;;;;;;;9.09;73.01;100577.84;5090419;28;20205;-81
2021/05/02 08:32:14;;;;;;;6.33;4.00;;;;;;;8.85;73.72;100576.41;5085048;28;20179;-81
2021/05/02 08:34:39;;;;;;;5.47;3.63;;;;;;;8.28;76.13;100584.47;5067369;28;20171;-82
2021/05/02 08:37:08;;;;;;;9.40;4.57;;;;;;;8.46;75.53;100578.28;5085642;28;20167;-80
2021/05/02 08:39:34;;;;;;;7.27;4.83;;;;;;;8.10;75.33;100575.53;5082845;28;20233;-81
2021/05/02 08:41:59;;;;;;;9.43;4.77;;;;;;;7.90;77.08;100575.63;5084479;28;20179;-81
2021/05/02 08:44:26;;;;;;;10.00;4.67;;;;;;;7.81;77.51;100576.91;5082882;28;20198;-81
2021/05/02 08:46:54;;;;;;;10.40;4.30;;;;;;;8.00;77.35;100576.06;5071662;28;20185;-81
2021/05/02 08:49:20;;;;;;;8.87;4.90;;;;;;;8.00;77.55;100574.25;5084611;28;20229;-82
2021/05/02 08:51:47;;;;;;;8.40;4.53;;;;;;;8.19;76.99;100576.06;5085902;28;20179;-81
2021/05/02 08:54:12;;;;;;;7.00;4.30;;;;;;;8.39;75.64;100574.22;5087072;28;20159;-81
2021/05/02 08:56:38;;;;;;;7.43;4.70;;;;;;;8.15;76.12;100576.19;5084944;28;20179;-82
2021/05/02 08:59:03;;;;;;;8.03;4.40;;;;;;;8.08;77.11;100566.78;5085986;28;20202;-80
2021/05/02 09:01:30;;;;;;;7.93;4.20;;;;;;;8.28;76.28;100571.19;5100389;28;20179;-81
2021/05/02 09:03:55;;;;;;;9.73;5.43;;;;;;;8.15;76.22;100564.69;5099052;28;20543;-80
2021/05/02 09:06:28;;;;;;;11.17;5.43;;;;;;;8.15;76.31;100570.00;5084589;28;20177;-80
2021/05/02 09:09:02;;;;;;;9.53;4.47;;;;;;;7.87;76.85;100577.56;5082930;28;20195;-80
2021/05/02 09:11:30;;;;;;;7.57;4.37;;;;;;;8.18;76.35;100569.91;5085259;28;20167;-82
2021/05/02 09:13:56;;;;;;;6.07;4.30;;;;;;;8.40;75.80;100565.28;5086906;28;20230;-82
2021/05/02 09:16:21;;;;;;;8.00;4.67;;;;;;;8.66;74.84;100569.34;5106097;28;20167;-81
2021/05/02 09:18:51;;;;;;;8.97;5.33;;;;;;;8.58;74.25;100565.34;5086852;28;20202;-82
2021/05/02 09:21:25;;;;;;;8.90;5.07;;;;;;;8.92;73.70;100568.06;5072153;28;20178;-83
2021/05/02 09:23:51;;;;;;;5.63;4.13;;;;;;;8.72;74.56;100560.22;5088437;28;20178;-83
2021/05/02 09:26:19;;;;;;;9.57;4.47;;;;;;;8.81;73.82;100572.19;5089473;28;20177;-81
2021/05/02 09:28:53;;;;;;;7.10;4.53;;;;;;;8.60;75.36;100569.66;5090011;28;20182;-81
2021/05/02 09:31:22;;;;;;;7.30;4.30;;;;;;;8.30;76.65;100563.97;5088827;28;20175;-81
2021/05/02 09:33:48;;;;;;;7.53;5.30;;;;;;;8.77;75.03;100568.81;5071850;28;20179;-80
2021/05/02 09:36:15;;;;;;;9.50;4.97;;;;;;;8.98;75.04;100566.91;5084296;28;20202;-81
2021/05/02 09:38:42;;;;;;;7.83;4.47;;;;;;;8.98;74.10;100561.56;5083072;28;20182;-79
2021/05/02 09:41:08;;;;;;;7.70;5.30;;;;;;;8.78;73.40;100549.25;5065219;28;20175;-81
2021/05/02 09:43:40;;;;;;;9.33;5.30;;;;;;;8.92;72.79;100560.09;5087842;28;20201;-82
2021/05/02 09:46:23;;;;;;;6.67;4.63;;;;;;;9.40;71.02;100553.19;5091806;28;20155;-81
2021/05/02 09:51:22;;;;;;;7.80;5.20;;;;;;;9.58;69.15;100554.00;5115912;22;20230;-70
2021/05/02 09:54:00;;;;;;;10.43;4.97;;;;;;;9.76;68.65;100557.50;5095944;28;20174;-71
2021/05/02 09:56:34;;;;;;;8.53;5.13;;;;;;;9.77;68.12;100562.75;5096762;28;20193;-71
2021/05/02 09:58:59;;;;;;;8.27;4.80;;;;;;;10.01;67.84;100560.53;5097544;28;20174;-70
2021/05/02 10:01:25;;;;;;;7.77;5.03;;;;;;;9.12;71.96;100558.19;5095152;28;20186;-70
2021/05/02 10:03:55;;;;;;;10.17;5.40;;;;;;;9.56;70.33;100559.41;5096347;28;20205;-71
2021/05/02 10:06:32;;;;;;;8.27;5.07;;;;;;;9.74;70.14;100556.72;5095005;28;20261;-73
2021/05/02 10:08:59;;;;;;;10.00;4.97;;;;;;;10.27;67.84;100564.47;5094667;28;20253;-69
2021/05/02 10:11:25;;;;;;;7.93;4.87;;;;;;;9.61;69.70;100551.16;5094871;28;20174;-72
2021/05/02 10:13:50;;;;;;;10.20;5.60;;;;;;;9.48;71.11;100555.44;5097705;28;20177;-70
2021/05/02 10:16:16;;;;;;;11.07;5.47;;;;;;;9.61;70.83;100562.69;5094901;28;20174;-71
2021/05/02 10:18:41;;;;;;;8.47;5.37;;;;;;;9.37;70.17;100554.19;5096515;28;20181;-71
2021/05/02 10:21:08;;;;;;;6.43;4.63;;;;;;;9.52;69.52;100559.66;5096837;28;20190;-70
2021/05/02 10:23:38;;;;;;;9.03;5.10;;;;;;;9.52;69.83;100564.97;5095742;28;20194;-71
2021/05/02 10:26:05;;;;;;;6.33;4.80;;;;;;;10.08;68.93;100566.41;5097059;28;20201;-70
2021/05/02 10:28:32;;;;;;;7.80;5.40;;;;;;;10.44;67.63;100569.75;5094625;28;20269;-71
2021/05/02 10:30:59;;;;;;;9.87;5.90;;;;;;;10.74;64.83;100564.44;5095979;28;20619;-71
2021/05/02 10:33:37;;;;;;;6.60;4.70;;;;;;;10.65;65.29;100575.66;5097110;28;20253;-73
2021/05/02 10:36:07;;;;;;;8.30;4.90;;;;;;;9.88;67.11;100573.69;5078951;28;20178;-71
2021/05/02 10:38:57;;;;;;;7.27;5.47;;;;;;;10.09;66.88;100574.31;5095795;28;20181;-70
2021/05/02 10:41:35;;;;;;;8.13;5.30;;;;;;;9.94;68.77;100576.00;5096193;28;20178;-70
2021/05/02 10:44:03;;;;;;;8.70;5.70;;;;;;;9.93;68.62;100568.97;5095632;28;20201;-71
2021/05/02 10:46:45;;;;;;;9.73;5.80;;;;;;;10.07;67.52;100576.22;5095587;28;20263;-70
2021/05/02 10:49:19;;;;;;;7.70;5.53;;;;;;;9.71;67.37;100579.06;5095996;28;20257;-71
2021/05/02 10:51:52;;;;;;;9.87;6.07;;;;;;;10.33;64.68;100578.31;5095542;28;20200;-71
2021/05/02 10:54:20;;;;;;;7.47;5.60;;;;;;;10.17;66.08;100569.44;5093979;28;20174;-70
2021/05/02 10:56:46;;;;;;;9.03;5.77;;;;;;;10.27;66.21;100577.81;5094912;28;20239;-70
2021/05/02 10:59:12;;;;;;;8.83;5.20;;;;;;;10.02;67.81;100573.78;5095314;28;20182;-70
2021/05/02 11:01:37;;;;;;;8.10;6.20;;;;;;;9.81;68.57;100571.44;5093752;28;20284;-70
2021/05/02 11:04:03;;;;;;;8.40;5.80;;;;;;;10.19;66.39;100580.00;5095020;28;20198;-70
2021/05/02 11:06:37;;;;;;;8.33;5.90;;;;;;;10.32;66.72;100576.59;5094396;28;20186;-70
2021/05/02 11:09:13;;;;;;;7.93;5.50;;;;;;;10.30;65.36;100581.16;5094995;28;20661;-70
2021/05/02 11:11:45;;;;;;;9.27;5.80;;;;;;;10.35;65.87;100580.91;5095086;28;20158;-72
2021/05/02 11:14:11;;;;;;;8.63;5.27;;;;;;;10.94;64.62;100579.31;5093596;28;20675;-72
2021/05/02 11:17:09;;;;;;;6.93;5.30;;;;;;;10.56;65.59;100581.50;5096971;28;20178;-71
2021/05/02 11:19:35;;;;;;;8.30;6.03;;;;;;;11.11;63.46;100576.50;5094796;28;20270;-70
2021/05/02 11:22:12;;;;;;;9.33;5.43;;;;;;;11.08;60.85;100581.16;5094897;28;20570;-69
2021/05/02 11:29:58;;;;;;;10.93;5.97;;;;;;;11.72;59.23;100570.13;5093709;28;20190;-69
2021/05/02 11:32:26;;;;;;;8.33;5.47;;;;;;;12.33;57.66;100573.47;5094508;28;20159;-71